createdAt,value
2023-01-27T10:54:18.003Z,6.77
2023-01-27T10:56:51.579Z,6.03
2023-01-27T11:00:21.887Z,4.50
2023-01-27T11:03:07.464Z,7.45
2023-01-27T11:05:41.736Z,9.27
2023-01-27T11:08:16.501Z,8.77
2023-01-27T11:11:05.944Z,9.20
2023-01-27T11:16:02.137Z,11.73
2023-01-27T12:16:05.305Z,9.53
2023-01-27T12:18:34.071Z,9.95
2023-01-27T12:21:06.959Z,9.27
2023-01-27T12:23:55.918Z,8.07
2023-01-27T12:26:36.690Z,7.75
2023-01-27T12:29:07.025Z,7.43
2023-01-27T12:31:46.385Z,7.80
2023-01-27T12:34:28.310Z,7.25
2023-01-27T12:36:56.546Z,8.27
2023-01-27T12:39:46.609Z,7.37
2023-01-27T12:42:37.616Z,6.80
2023-01-27T12:45:30.034Z,7.30
2023-01-27T12:48:02.803Z,7.03
2023-01-27T12:50:34.685Z,8.10
2023-01-27T12:53:18.613Z,7.53
2023-01-27T12:56:07.230Z,7.30
2023-01-27T12:58:53.842Z,7.68
2023-01-27T13:01:30.515Z,6.97
2023-01-27T13:04:07.242Z,7.17
2023-01-27T13:06:43.450Z,5.90
2023-01-27T13:09:29.074Z,8.57
2023-01-27T13:11:59.347Z,9.03
2023-01-27T13:14:30.692Z,9.63
2023-01-27T13:16:59.260Z,10.97
2023-01-27T13:19:43.578Z,10.97
2023-01-27T13:22:19.316Z,13.50
2023-01-27T13:24:49.764Z,25.70
2023-01-27T13:27:22.091Z,18.57
2023-01-27T13:30:01.360Z,11.33
2023-01-27T13:32:33.445Z,12.38
2023-01-27T13:35:13.919Z,11.93
2023-01-27T13:37:51.629Z,11.27
2023-01-27T13:40:27.888Z,50.93
2023-01-27T13:43:20.284Z,33.37
2023-01-27T13:46:00.521Z,42.37
2023-01-27T13:48:32.949Z,40.23
2023-01-27T13:51:10.826Z,10.77
2023-01-27T13:53:39.085Z,38.93
2023-01-27T13:56:12.102Z,44.00
2023-01-27T13:58:50.852Z,34.33
2023-01-27T14:01:42.521Z,14.40
2023-01-27T14:04:25.353Z,12.77
2023-01-27T14:07:36.784Z,15.03
